Time;durP1;ratioP1;P1;durP2;ratioP2;P2;SDS_P1;SDS_P2;PMS_P1;PMS_P2;Temp;Humidity;BMP_temperature;BMP_pressure;BME280_temperature;BME280_humidity;BME280_pressure;Samples;Min_cycle;Max_cycle;Signal;HPM_P1;HPM_P2
2021/08/24 00:01:09;;;;;;;;;;;16.00;99.90;;;;;;5095027;28;20389;-72
2021/08/24 00:03:34;;;;;;;;;;;16.10;99.90;;;;;;5094856;28;19929;-72
2021/08/24 00:06:00;;;;;;;;;;;16.10;99.90;;;;;;5094885;28;19908;-73
2021/08/24 00:08:25;;;;;;;;;;;16.30;99.90;;;;;;5094837;28;20000;-73
2021/08/24 00:10:53;;;;;;;;;;;16.30;99.90;;;;;;5057056;28;19905;-73
2021/08/24 00:13:19;;;;;;;;;;;16.30;99.90;;;;;;5054499;28;19970;-73
2021/08/24 00:15:45;;;;;;;;;;;16.30;99.90;;;;;;5054178;28;20375;-71
2021/08/24 00:18:11;;;;;;;;;;;16.20;99.90;;;;;;5053129;28;19904;-74
2021/08/24 00:20:37;;;;;;;;;;;16.30;99.90;;;;;;5054306;28;20369;-73
2021/08/24 00:23:05;;;;;;;;;;;16.30;99.90;;;;;;5054229;28;19905;-73
2021/08/24 00:25:30;;;;;;;;;;;16.30;99.90;;;;;;5054204;28;19912;-74
2021/08/24 00:27:56;;;;;;;;;;;16.30;99.90;;;;;;5052841;28;19905;-73
2021/08/24 00:30:21;;;;;;;;;;;16.30;99.90;;;;;;5053980;28;20318;-73
2021/08/24 00:32:47;;;;;;;;;;;16.30;99.90;;;;;;5052834;28;20323;-74
2021/08/24 00:35:12;;;;;;;;;;;16.30;99.90;;;;;;5053592;28;19905;-73
2021/08/24 00:37:38;;;;;;;;;;;16.50;99.90;;;;;;5057034;28;19970;-75
2021/08/24 00:40:04;;;;;;;;;;;16.60;99.90;;;;;;5055879;28;19972;-73
2021/08/24 00:42:30;;;;;;;;;;;16.50;99.90;;;;;;5054974;28;19905;-72
2021/08/24 00:44:55;;;;;;;;;;;16.30;99.90;;;;;;5055231;28;19944;-73
2021/08/24 00:47:22;;;;;;;;;;;16.30;99.90;;;;;;5063482;28;20356;-73
2021/08/24 00:49:48;;;;;;;;;;;16.20;99.90;;;;;;5082093;28;20291;-73
2021/08/24 00:52:16;;;;;;;;;;;16.20;99.90;;;;;;5075195;28;19948;-73
2021/08/24 00:54:45;;;;;;;;;;;16.20;99.90;;;;;;5073954;28;19904;-73
2021/08/24 00:57:12;;;;;;;;;;;16.20;99.90;;;;;;5073944;28;19908;-73
2021/08/24 00:59:38;;;;;;;;;;;16.20;99.90;;;;;;5073406;28;20406;-71
2021/08/24 01:02:05;;;;;;;;;;;16.30;99.90;;;;;;5072804;28;19908;-72
2021/08/24 01:04:31;;;;;;;;;;;16.20;99.90;;;;;;5072197;28;20368;-72
2021/08/24 01:06:56;;;;;;;;;;;16.00;99.90;;;;;;5073139;28;19905;-73
2021/08/24 01:09:27;;;;;;;;;;;16.00;99.90;;;;;;5066933;28;19913;-73
2021/08/24 01:11:59;;;;;;;;;;;15.90;99.90;;;;;;5051988;28;20357;-75
2021/08/24 01:14:43;;;;;;;;;;;15.90;99.90;;;;;;5053362;28;19904;-72
2021/08/24 01:17:14;;;;;;;;;;;15.80;99.90;;;;;;5051757;28;19931;-72
2021/08/24 01:19:40;;;;;;;;;;;15.90;99.90;;;;;;5053323;28;19905;-72
2021/08/24 01:22:38;;;;;;;;;;;15.90;99.90;;;;;;5058184;28;19947;-74
2021/08/24 01:25:03;;;;;;;;;;;15.90;99.90;;;;;;5030046;28;20379;-73
2021/08/24 01:27:37;;;;;;;;;;;15.90;99.90;;;;;;5052930;28;19991;-73
2021/08/24 01:30:09;;;;;;;;;;;15.90;99.90;;;;;;5051589;28;19905;-72
2021/08/24 01:32:37;;;;;;;;;;;15.70;99.90;;;;;;5052967;28;19904;-74
2021/08/24 01:35:12;;;;;;;;;;;15.60;99.90;;;;;;5051594;28;19905;-73
2021/08/24 01:37:46;;;;;;;;;;;15.70;99.90;;;;;;5052703;28;19959;-74
2021/08/24 01:40:14;;;;;;;;;;;15.70;99.90;;;;;;5052730;28;19904;-74
2021/08/24 01:42:40;;;;;;;;;;;15.70;99.90;;;;;;5052705;28;20319;-73
2021/08/24 01:45:13;;;;;;;;;;;15.80;99.90;;;;;;5052671;28;19911;-72
2021/08/24 01:47:38;;;;;;;;;;;15.80;99.90;;;;;;5074990;28;19952;-73
2021/08/24 01:50:10;;;;;;;;;;;15.80;99.90;;;;;;5084658;28;19904;-72
2021/08/24 01:52:38;;;;;;;;;;;15.80;99.90;;;;;;5092863;28;19966;-73
2021/08/24 01:55:10;;;;;;;;;;;15.70;99.90;;;;;;5092779;28;20352;-72
2021/08/24 01:57:41;;;;;;;;;;;15.70;99.90;;;;;;5091315;28;20298;-72
2021/08/24 02:00:09;;;;;;;;;;;15.60;99.90;;;;;;5088887;28;19912;-73
2021/08/24 02:02:41;;;;;;;;;;;15.50;99.90;;;;;;5091073;28;19904;-72
2021/08/24 02:05:16;;;;;;;;;;;15.60;99.90;;;;;;5092590;28;19911;-74
2021/08/24 02:07:44;;;;;;;;;;;15.50;99.90;;;;;;5092730;28;19957;-72
2021/08/24 02:10:21;;;;;;;;;;;15.40;99.90;;;;;;5066381;28;19905;-73
2021/08/24 02:12:48;;;;;;;;;;;15.20;99.90;;;;;;5052367;28;19912;-72
2021/08/24 02:15:15;;;;;;;;;;;15.20;99.90;;;;;;5050894;28;19992;-73
2021/08/24 02:17:42;;;;;;;;;;;15.10;99.90;;;;;;5052088;28;20376;-73
2021/08/24 02:20:16;;;;;;;;;;;15.00;99.90;;;;;;5050921;28;19909;-72
2021/08/24 02:22:43;;;;;;;;;;;14.90;99.90;;;;;;5052205;28;19905;-73
2021/08/24 02:25:09;;;;;;;;;;;14.80;99.90;;;;;;5052002;28;20364;-73
2021/08/24 02:27:36;;;;;;;;;;;14.70;99.90;;;;;;5052102;28;19905;-73
2021/08/24 02:30:02;;;;;;;;;;;14.70;99.90;;;;;;5050788;28;19958;-72
2021/08/24 02:32:31;;;;;;;;;;;14.70;99.90;;;;;;5050829;28;19981;-73
2021/08/24 02:34:59;;;;;;;;;;;14.70;99.90;;;;;;5052172;28;19905;-75
2021/08/24 02:37:29;;;;;;;;;;;14.60;99.90;;;;;;5050724;28;20233;-72
2021/08/24 02:39:58;;;;;;;;;;;14.50;99.90;;;;;;5051914;28;19904;-74
2021/08/24 02:42:30;;;;;;;;;;;14.50;99.90;;;;;;5052003;28;19912;-72
2021/08/24 02:44:59;;;;;;;;;;;14.50;99.90;;;;;;5051926;28;19905;-72
2021/08/24 02:47:24;;;;;;;;;;;14.50;99.90;;;;;;5064478;28;20356;-74
2021/08/24 02:49:51;;;;;;;;;;;14.50;99.90;;;;;;5083666;28;19999;-72
2021/08/24 02:52:17;;;;;;;;;;;14.40;99.90;;;;;;5092147;28;20042;-72
2021/08/24 02:54:45;;;;;;;;;;;14.40;99.90;;;;;;5090788;28;19943;-73
2021/08/24 02:57:11;;;;;;;;;;;14.40;99.90;;;;;;5092824;28;19915;-73
2021/08/24 02:59:37;;;;;;;;;;;14.40;99.90;;;;;;5096067;28;19912;-72
2021/08/24 03:02:03;;;;;;;;;;;14.40;99.90;;;;;;5095927;28;20410;-72
2021/08/24 03:04:29;;;;;;;;;;;14.30;99.90;;;;;;5095993;28;19943;-73
2021/08/24 03:07:00;;;;;;;;;;;14.20;99.90;;;;;;5095742;28;19908;-73
2021/08/24 03:09:26;;;;;;;;;;;14.30;99.90;;;;;;5080569;28;19966;-72
2021/08/24 03:12:11;;;;;;;;;;;14.40;99.90;;;;;;5054115;28;19905;-73
2021/08/24 03:15:06;;;;;;;;;;;14.30;99.90;;;;;;5055613;28;19904;-73
2021/08/24 03:17:38;;;;;;;;;;;14.30;99.90;;;;;;5045946;28;20339;-72
2021/08/24 03:20:05;;;;;;;;;;;14.10;99.90;;;;;;5055490;28;19905;-73
2021/08/24 03:22:31;;;;;;;;;;;14.20;99.90;;;;;;5053972;28;19909;-73
2021/08/24 03:24:57;;;;;;;;;;;14.20;99.90;;;;;;5055274;28;19974;-73
2021/08/24 03:27:24;;;;;;;;;;;14.20;99.90;;;;;;5055097;28;19904;-73
2021/08/24 03:30:00;;;;;;;;;;;14.10;99.90;;;;;;5053947;28;19905;-73
2021/08/24 03:32:26;;;;;;;;;;;14.10;99.90;;;;;;5055182;28;19904;-73
2021/08/24 03:34:51;;;;;;;;;;;14.00;99.90;;;;;;5055155;28;19905;-73
2021/08/24 03:37:17;;;;;;;;;;;14.00;99.90;;;;;;5054922;28;19967;-72
2021/08/24 03:39:42;;;;;;;;;;;13.90;99.90;;;;;;5053815;28;20304;-73
2021/08/24 03:42:08;;;;;;;;;;;13.90;99.90;;;;;;5054974;28;20421;-72
2021/08/24 03:44:33;;;;;;;;;;;13.80;99.90;;;;;;5053786;28;19979;-73
2021/08/24 03:46:59;;;;;;;;;;;13.60;99.90;;;;;;5058873;28;19912;-74
2021/08/24 03:49:24;;;;;;;;;;;13.60;99.90;;;;;;5086536;28;19904;-73
2021/08/24 03:51:50;;;;;;;;;;;13.60;99.90;;;;;;5095211;28;19911;-73
2021/08/24 03:54:15;;;;;;;;;;;13.60;99.90;;;;;;5093688;28;19904;-73
2021/08/24 03:56:41;;;;;;;;;;;13.70;99.90;;;;;;5095022;28;19908;-73
2021/08/24 03:59:07;;;;;;;;;;;13.70;99.90;;;;;;5094791;28;20354;-72
2021/08/24 04:01:32;;;;;;;;;;;13.70;99.90;;;;;;5091698;28;19904;-73
2021/08/24 04:03:58;;;;;;;;;;;13.60;99.90;;;;;;5094909;28;19979;-73
2021/08/24 04:06:24;;;;;;;;;;;13.60;99.90;;;;;;5093556;28;20280;-73
2021/08/24 04:08:50;;;;;;;;;;;13.60;99.90;;;;;;5089341;28;19911;-73
2021/08/24 04:11:15;;;;;;;;;;;13.50;99.90;;;;;;5054555;28;19951;-73
2021/08/24 04:13:41;;;;;;;;;;;13.60;99.90;;;;;;5054543;28;20272;-73
2021/08/24 04:16:07;;;;;;;;;;;13.60;99.90;;;;;;5053106;28;19908;-72
2021/08/24 04:18:33;;;;;;;;;;;13.50;99.90;;;;;;5053204;28;20376;-73
2021/08/24 04:20:59;;;;;;;;;;;13.50;99.90;;;;;;5054417;28;19948;-73
2021/08/24 04:23:24;;;;;;;;;;;13.60;99.90;;;;;;5065219;28;19908;-73
2021/08/24 04:25:50;;;;;;;;;;;13.50;99.90;;;;;;5054293;28;19909;-73
2021/08/24 04:28:15;;;;;;;;;;;13.40;99.90;;;;;;5052995;28;20006;-72
2021/08/24 04:30:41;;;;;;;;;;;13.30;99.90;;;;;;5053007;28;19911;-72
2021/08/24 04:33:06;;;;;;;;;;;13.30;99.90;;;;;;5054030;28;19911;-72
2021/08/24 04:35:32;;;;;;;;;;;13.20;99.90;;;;;;5054036;28;19992;-72
2021/08/24 04:37:57;;;;;;;;;;;13.10;99.90;;;;;;5054037;28;19913;-73
2021/08/24 04:40:23;;;;;;;;;;;13.10;99.90;;;;;;5053979;28;19905;-73
2021/08/24 04:42:48;;;;;;;;;;;13.00;99.90;;;;;;5052709;28;20428;-74
2021/08/24 04:45:14;;;;;;;;;;;13.00;99.90;;;;;;5053980;28;19982;-73
2021/08/24 04:47:39;;;;;;;;;;;13.10;99.90;;;;;;5076220;28;19908;-73
2021/08/24 04:50:05;;;;;;;;;;;13.10;99.90;;;;;;5085711;28;19911;-73
2021/08/24 04:52:31;;;;;;;;;;;13.10;99.90;;;;;;5093829;28;19962;-73
2021/08/24 04:54:56;;;;;;;;;;;13.20;99.90;;;;;;5093754;28;19911;-71
2021/08/24 04:57:22;;;;;;;;;;;13.30;99.90;;;;;;5093698;28;20294;-73
2021/08/24 04:59:47;;;;;;;;;;;13.40;99.90;;;;;;5093776;28;20268;-73
2021/08/24 05:02:13;;;;;;;;;;;13.50;99.90;;;;;;5092319;28;19904;-72
2021/08/24 05:04:38;;;;;;;;;;;13.50;99.90;;;;;;5093824;28;20002;-72
2021/08/24 05:07:04;;;;;;;;;;;13.60;99.90;;;;;;5092087;28;19904;-73
2021/08/24 05:09:29;;;;;;;;;;;13.70;99.90;;;;;;5078525;28;19911;-72
2021/08/24 05:11:56;;;;;;;;;;;14.00;99.90;;;;;;5053327;28;19911;-73
2021/08/24 05:14:21;;;;;;;;;;;14.10;99.90;;;;;;5053193;28;19909;-73
2021/08/24 05:16:51;;;;;;;;;;;14.20;99.90;;;;;;5052731;28;20286;-72
2021/08/24 05:19:17;;;;;;;;;;;14.20;99.90;;;;;;5053227;28;19905;-71
2021/08/24 05:21:42;;;;;;;;;;;14.10;99.90;;;;;;5052923;28;19928;-73
2021/08/24 05:24:08;;;;;;;;;;;14.10;99.90;;;;;;5053101;28;19965;-73
2021/08/24 05:26:33;;;;;;;;;;;14.10;99.90;;;;;;5051446;28;19958;-71
2021/08/24 05:28:59;;;;;;;;;;;14.20;99.90;;;;;;5052821;28;19905;-72
2021/08/24 05:31:24;;;;;;;;;;;14.30;99.90;;;;;;5052730;28;19911;-72
2021/08/24 05:33:50;;;;;;;;;;;14.50;99.90;;;;;;5052760;28;19904;-72
2021/08/24 05:36:15;;;;;;;;;;;14.50;99.90;;;;;;5052526;28;19915;-73
2021/08/24 05:38:40;;;;;;;;;;;14.50;99.90;;;;;;5052670;28;19999;-72
2021/08/24 05:41:06;;;;;;;;;;;14.40;99.90;;;;;;5052707;28;19959;-73
2021/08/24 05:43:32;;;;;;;;;;;14.40;99.90;;;;;;5051324;28;20023;-73
2021/08/24 05:45:58;;;;;;;;;;;14.50;99.90;;;;;;5052383;28;19908;-72
2021/08/24 05:48:25;;;;;;;;;;;14.80;99.90;;;;;;5068444;28;19930;-73
2021/08/24 05:50:51;;;;;;;;;;;14.80;99.90;;;;;;5092758;28;19911;-72
2021/08/24 05:53:17;;;;;;;;;;;15.00;99.90;;;;;;5086347;28;20283;-73
2021/08/24 05:55:42;;;;;;;;;;;15.20;99.90;;;;;;5072140;28;19934;-73
2021/08/24 05:58:08;;;;;;;;;;;15.10;99.90;;;;;;5072283;28;19912;-72
2021/08/24 06:00:33;;;;;;;;;;;15.40;99.90;;;;;;5073572;28;20421;-73
2021/08/24 06:02:58;;;;;;;;;;;15.30;99.90;;;;;;5072485;28;19957;-72
2021/08/24 06:05:24;;;;;;;;;;;15.10;99.90;;;;;;5063678;28;20356;-72
2021/08/24 06:07:49;;;;;;;;;;;15.20;99.90;;;;;;5072323;28;20340;-73
2021/08/24 06:10:15;;;;;;;;;;;15.40;99.90;;;;;;5058692;28;19911;-72
2021/08/24 06:12:40;;;;;;;;;;;15.50;99.90;;;;;;5052260;28;19904;-73
2021/08/24 06:15:06;;;;;;;;;;;15.90;99.90;;;;;;5052112;28;19951;-75
2021/08/24 06:17:32;;;;;;;;;;;16.10;99.90;;;;;;5052165;28;19909;-74
2021/08/24 06:19:58;;;;;;;;;;;16.20;99.90;;;;;;5051103;28;19915;-73
2021/08/24 06:22:23;;;;;;;;;;;16.00;99.90;;;;;;5052199;28;20431;-73
2021/08/24 06:24:49;;;;;;;;;;;15.70;99.90;;;;;;5052339;28;20301;-73
2021/08/24 06:27:14;;;;;;;;;;;15.70;99.90;;;;;;5052103;28;19909;-72
2021/08/24 06:29:39;;;;;;;;;;;15.90;99.90;;;;;;5052042;28;19912;-72
2021/08/24 06:32:06;;;;;;;;;;;16.10;99.90;;;;;;5051599;28;19961;-73
2021/08/24 06:34:33;;;;;;;;;;;16.10;99.90;;;;;;5052019;28;19905;-73
2021/08/24 06:36:58;;;;;;;;;;;16.20;99.90;;;;;;5051776;28;19912;-74
2021/08/24 06:39:24;;;;;;;;;;;16.20;99.90;;;;;;5051869;28;20281;-73
2021/08/24 06:41:49;;;;;;;;;;;16.20;99.90;;;;;;5054873;28;19990;-72
2021/08/24 06:44:15;;;;;;;;;;;16.00;99.90;;;;;;5073671;28;19915;-72
2021/08/24 06:46:40;;;;;;;;;;;15.80;99.90;;;;;;5071876;28;19915;-73
2021/08/24 06:49:06;;;;;;;;;;;15.70;99.90;;;;;;5071929;28;19944;-73
2021/08/24 06:51:32;;;;;;;;;;;15.70;99.90;;;;;;5071850;28;20003;-73
2021/08/24 06:53:58;;;;;;;;;;;15.70;99.90;;;;;;5071949;28;19954;-73
2021/08/24 06:56:23;;;;;;;;;;;16.00;99.90;;;;;;5071009;28;20350;-73
2021/08/24 06:58:49;;;;;;;;;;;16.00;99.90;;;;;;5071552;28;19918;-72
2021/08/24 07:01:18;;;;;;;;;;;16.10;99.90;;;;;;5071782;28;19904;-73
2021/08/24 07:03:44;;;;;;;;;;;16.00;99.90;;;;;;5071871;28;19998;-72
2021/08/24 07:06:10;;;;;;;;;;;16.20;99.90;;;;;;5065764;28;19948;-73
2021/08/24 07:08:35;;;;;;;;;;;16.40;99.90;;;;;;5059148;28;20281;-72
2021/08/24 07:11:01;;;;;;;;;;;16.40;99.90;;;;;;5061769;28;20372;-72
2021/08/24 07:13:28;;;;;;;;;;;16.10;99.90;;;;;;5069467;28;19904;-73
2021/08/24 07:15:54;;;;;;;;;;;16.10;99.90;;;;;;5071625;28;19905;-73
2021/08/24 07:18:19;;;;;;;;;;;16.20;99.90;;;;;;5071483;28;20316;-72
2021/08/24 07:20:48;;;;;;;;;;;16.00;99.90;;;;;;5071417;28;19943;-73
2021/08/24 07:23:13;;;;;;;;;;;16.00;99.90;;;;;;5068852;28;19908;-74
2021/08/24 07:25:39;;;;;;;;;;;16.10;99.90;;;;;;5059340;28;19909;-72
2021/08/24 07:28:09;;;;;;;;;;;16.20;99.90;;;;;;5065921;28;19931;-73
2021/08/24 07:30:35;;;;;;;;;;;16.00;99.90;;;;;;5051577;28;19997;-73
2021/08/24 07:33:01;;;;;;;;;;;16.00;99.90;;;;;;5051028;28;19909;-73
2021/08/24 07:35:26;;;;;;;;;;;16.00;99.90;;;;;;5069987;28;19904;-73
2021/08/24 07:37:51;;;;;;;;;;;16.00;99.90;;;;;;5071255;28;20384;-73
2021/08/24 07:40:17;;;;;;;;;;;16.00;99.90;;;;;;5070491;28;19908;-72
2021/08/24 07:42:45;;;;;;;;;;;16.00;99.90;;;;;;5053339;28;19908;-72
2021/08/24 07:45:11;;;;;;;;;;;16.10;99.90;;;;;;5084811;28;20274;-73
2021/08/24 07:47:37;;;;;;;;;;;16.10;99.90;;;;;;5072271;28;19917;-73
2021/08/24 07:50:04;;;;;;;;;;;15.90;99.90;;;;;;5063710;28;19912;-73
2021/08/24 07:52:29;;;;;;;;;;;15.90;99.90;;;;;;5066366;28;19908;-74
2021/08/24 07:54:54;;;;;;;;;;;16.20;99.90;;;;;;5070107;28;19909;-72
2021/08/24 07:57:20;;;;;;;;;;;16.50;99.90;;;;;;5094748;28;19908;-72
2021/08/24 07:59:46;;;;;;;;;;;16.50;99.90;;;;;;5083169;28;20381;-73
2021/08/24 08:02:13;;;;;;;;;;;16.90;99.90;;;;;;5073510;28;19904;-74
2021/08/24 08:04:38;;;;;;;;;;;17.10;99.90;;;;;;5074823;28;20248;-74
2021/08/24 08:07:04;;;;;;;;;;;17.30;99.90;;;;;;5073235;28;19904;-73
2021/08/24 08:09:30;;;;;;;;;;;17.10;99.90;;;;;;5065606;28;19911;-74
2021/08/24 08:11:55;;;;;;;;;;;17.20;99.90;;;;;;5065107;28;19944;-72
2021/08/24 08:14:21;;;;;;;;;;;17.10;99.90;;;;;;5073125;28;20280;-73
2021/08/24 08:16:46;;;;;;;;;;;17.20;99.90;;;;;;5074233;28;19952;-74
2021/08/24 08:19:12;;;;;;;;;;;17.20;99.90;;;;;;5072776;28;19908;-76
2021/08/24 08:21:38;;;;;;;;;;;17.50;99.90;;;;;;5062324;28;19992;-73
2021/08/24 08:24:04;;;;;;;;;;;17.60;99.90;;;;;;5072576;28;20361;-73
2021/08/24 08:26:29;;;;;;;;;;;17.70;99.90;;;;;;5074156;28;19905;-74
2021/08/24 08:28:55;;;;;;;;;;;17.70;99.90;;;;;;5074231;28;19910;-75
2021/08/24 08:31:22;;;;;;;;;;;17.40;99.90;;;;;;5055267;28;19908;-73
2021/08/24 08:33:47;;;;;;;;;;;17.30;99.90;;;;;;5054226;28;19905;-73
2021/08/24 08:36:13;;;;;;;;;;;17.20;99.90;;;;;;5053034;28;19912;-74
2021/08/24 08:38:39;;;;;;;;;;;17.00;99.90;;;;;;5053977;28;19912;-73
2021/08/24 08:41:09;;;;;;;;;;;17.70;99.90;;;;;;5052509;28;19948;-71
2021/08/24 08:43:46;;;;;;;;;;;18.20;99.90;;;;;;5052744;28;19927;-73
2021/08/24 08:46:31;;;;;;;;;;;18.60;99.90;;;;;;5054059;28;20008;-74
2021/08/24 08:49:07;;;;;;;;;;;18.80;99.90;;;;;;5072688;28;20408;-72
2021/08/24 08:51:33;;;;;;;;;;;18.80;99.90;;;;;;5089918;28;20458;-72
2021/08/24 08:54:19;;;;;;;;;;;18.50;99.90;;;;;;5093893;28;19904;-73
2021/08/24 08:56:48;;;;;;;;;;;18.60;99.90;;;;;;5093485;28;19953;-73
2021/08/24 08:59:15;;;;;;;;;;;18.40;99.90;;;;;;5080372;28;20311;-73
2021/08/24 09:01:47;;;;;;;;;;;18.10;99.90;;;;;;5073612;28;19915;-73
2021/08/24 09:04:12;;;;;;;;;;;18.00;99.90;;;;;;5072156;28;19912;-74
2021/08/24 09:06:38;;;;;;;;;;;18.00;99.90;;;;;;5073556;28;19915;-73
2021/08/24 09:09:08;;;;;;;;;;;17.70;99.90;;;;;;5069245;28;20007;-73
2021/08/24 09:11:37;;;;;;;;;;;17.70;99.90;;;;;;5053523;28;20357;-73
2021/08/24 09:14:23;;;;;;;;;;;17.80;99.90;;;;;;5053382;28;19950;-74
2021/08/24 09:16:51;;;;;;;;;;;17.60;99.90;;;;;;5052661;28;19909;-73
2021/08/24 09:19:20;;;;;;;;;;;17.60;99.90;;;;;;5053187;28;19970;-72
2021/08/24 09:21:46;;;;;;;;;;;17.80;99.90;;;;;;5053329;28;19911;-73
2021/08/24 09:24:13;;;;;;;;;;;17.70;99.90;;;;;;5052987;28;19987;-73
2021/08/24 09:26:46;;;;;;;;;;;17.60;99.90;;;;;;5053093;28;19911;-73
2021/08/24 09:29:12;;;;;;;;;;;18.00;99.90;;;;;;5053043;28;20315;-72
2021/08/24 09:31:39;;;;;;;;;;;18.20;99.90;;;;;;5051725;28;19909;-73
2021/08/24 09:34:04;;;;;;;;;;;18.20;99.90;;;;;;5052845;28;19905;-72
2021/08/24 09:36:30;;;;;;;;;;;18.00;99.90;;;;;;5052437;28;19909;-73
2021/08/24 09:38:57;;;;;;;;;;;17.90;99.90;;;;;;5052848;28;19905;-73
2021/08/24 09:41:24;;;;;;;;;;;17.60;99.90;;;;;;5052884;28;19905;-73
2021/08/24 09:43:51;;;;;;;;;;;17.50;99.90;;;;;;5052969;28;20430;-73
2021/08/24 09:46:16;;;;;;;;;;;17.60;99.90;;;;;;5052712;28;20051;-72
2021/08/24 09:48:57;;;;;;;;;;;17.70;99.90;;;;;;5071743;28;19983;-73
2021/08/24 09:51:31;;;;;;;;;;;17.60;99.90;;;;;;5080317;28;19961;-73
2021/08/24 09:53:57;;;;;;;;;;;17.40;99.90;;;;;;5072529;28;19959;-72
2021/08/24 09:56:25;;;;;;;;;;;17.40;99.90;;;;;;5067939;28;19947;-72
2021/08/24 09:58:50;;;;;;;;;;;17.60;99.90;;;;;;5085081;28;19919;-72
2021/08/24 10:01:16;;;;;;;;;;;17.80;99.90;;;;;;5078809;28;19908;-73
2021/08/24 10:03:43;;;;;;;;;;;17.90;99.90;;;;;;5091366;28;19904;-72
2021/08/24 10:06:23;;;;;;;;;;;18.00;99.90;;;;;;5079995;28;19908;-73
2021/08/24 10:08:55;;;;;;;;;;;17.90;99.90;;;;;;5083977;28;19907;-73
2021/08/24 10:11:32;;;;;;;;;;;17.90;99.90;;;;;;5060948;28;20027;-72
2021/08/24 10:14:10;;;;;;;;;;;18.00;99.90;;;;;;5070937;28;20384;-74
2021/08/24 10:16:37;;;;;;;;;;;18.10;99.90;;;;;;5072451;28;19908;-74
2021/08/24 10:19:06;;;;;;;;;;;18.00;99.90;;;;;;5070818;28;19915;-73
2021/08/24 10:21:37;;;;;;;;;;;18.10;99.90;;;;;;5070968;28;19909;-72
2021/08/24 10:24:03;;;;;;;;;;;18.20;99.90;;;;;;5055133;28;19904;-72
2021/08/24 10:26:35;;;;;;;;;;;18.60;99.90;;;;;;5063310;28;19912;-73
2021/08/24 10:29:03;;;;;;;;;;;18.90;99.90;;;;;;5050619;28;19911;-73
2021/08/24 10:31:31;;;;;;;;;;;18.90;99.90;;;;;;5050028;28;19909;-73
2021/08/24 10:34:01;;;;;;;;;;;19.00;99.90;;;;;;5051755;28;20364;-72
2021/08/24 10:36:30;;;;;;;;;;;18.80;99.90;;;;;;5051868;28;19912;-73
2021/08/24 10:38:57;;;;;;;;;;;18.80;99.90;;;;;;5051838;28;19944;-73
2021/08/24 10:41:31;;;;;;;;;;;18.50;99.90;;;;;;5052120;28;19940;-72
2021/08/24 10:43:58;;;;;;;;;;;18.70;99.90;;;;;;5052315;28;19905;-74
2021/08/24 10:46:25;;;;;;;;;;;18.60;99.90;;;;;;5051952;28;19982;-73
2021/08/24 10:48:50;;;;;;;;;;;18.60;99.90;;;;;;5051673;28;19952;-73
2021/08/24 10:51:42;;;;;;;;;;;18.60;99.90;;;;;;5051889;28;19919;-72
2021/08/24 10:54:12;;;;;;;;;;;18.50;99.90;;;;;;5035718;28;19904;-74
2021/08/24 10:56:42;;;;;;;;;;;18.60;99.90;;;;;;5051615;28;19962;-72
2021/08/24 10:59:25;;;;;;;;;;;18.80;99.90;;;;;;5052256;28;19923;-73
2021/08/24 11:02:04;;;;;;;;;;;19.10;99.90;;;;;;5080301;28;19991;-72
2021/08/24 11:04:48;;;;;;;;;;;19.30;99.90;;;;;;5092017;28;19999;-73
2021/08/24 11:07:32;;;;;;;;;;;19.00;99.90;;;;;;5090434;28;19911;-74
2021/08/24 11:10:01;;;;;;;;;;;19.20;99.90;;;;;;5067383;28;19959;-74
2021/08/24 11:12:32;;;;;;;;;;;19.10;99.90;;;;;;5064745;28;19904;-72
2021/08/24 11:15:16;;;;;;;;;;;19.00;99.90;;;;;;5071601;28;19931;-73
2021/08/24 11:17:58;;;;;;;;;;;18.80;99.90;;;;;;5072056;28;19908;-73
2021/08/24 11:20:39;;;;;;;;;;;18.60;99.90;;;;;;5075513;28;19905;-74
2021/08/24 11:23:13;;;;;;;;;;;18.70;99.90;;;;;;5075496;28;19910;-74
2021/08/24 11:25:41;;;;;;;;;;;18.40;99.90;;;;;;5055128;28;20280;-73
2021/08/24 11:28:08;;;;;;;;;;;18.70;99.90;;;;;;5055345;28;19904;-72
2021/08/24 11:30:55;;;;;;;;;;;18.90;99.90;;;;;;5053928;28;19904;-73
2021/08/24 11:33:23;;;;;;;;;;;19.10;99.90;;;;;;5053878;28;19905;-74
2021/08/24 11:35:49;;;;;;;;;;;19.10;99.90;;;;;;5055260;28;20373;-72
2021/08/24 11:38:17;;;;;;;;;;;19.20;99.90;;;;;;5071911;28;20003;-74
2021/08/24 11:41:04;;;;;;;;;;;19.20;99.90;;;;;;5075226;28;19940;-72
2021/08/24 11:43:32;;;;;;;;;;;19.20;99.90;;;;;;5074422;28;20004;-73
2021/08/24 11:46:00;;;;;;;;;;;19.10;99.90;;;;;;5054837;28;19909;-73
2021/08/24 11:48:27;;;;;;;;;;;19.00;99.90;;;;;;5054762;28;19911;-73
2021/08/24 11:51:11;;;;;;;;;;;19.00;99.90;;;;;;5053502;28;19908;-72
2021/08/24 11:53:45;;;;;;;;;;;18.80;99.90;;;;;;5054892;28;19940;-72
2021/08/24 11:56:17;;;;;;;;;;;18.50;99.90;;;;;;5055131;28;19949;-72
2021/08/24 11:58:46;;;;;;;;;;;18.50;99.90;;;;;;5053307;28;19919;-72
2021/08/24 12:01:16;;;;;;;;;;;18.60;99.90;;;;;;5075678;28;19931;-72
2021/08/24 12:03:47;;;;;;;;;;;18.40;99.90;;;;;;5091483;28;19904;-73
2021/08/24 12:06:15;;;;;;;;;;;18.40;99.90;;;;;;5092256;28;19936;-73
2021/08/24 12:08:45;;;;;;;;;;;18.50;99.90;;;;;;5079913;28;20371;-72
2021/08/24 12:11:16;;;;;;;;;;;18.60;99.90;;;;;;5051321;28;20364;-72
2021/08/24 12:13:47;;;;;;;;;;;18.80;99.90;;;;;;5054046;28;19905;-72
2021/08/24 12:16:18;;;;;;;;;;;19.20;99.90;;;;;;5054033;28;20288;-72
2021/08/24 12:18:44;;;;;;;;;;;19.30;99.90;;;;;;5053685;28;19987;-72
2021/08/24 12:21:28;;;;;;;;;;;19.60;99.90;;;;;;5053939;28;19959;-72
2021/08/24 12:23:54;;;;;;;;;;;19.90;99.90;;;;;;5052807;28;19951;-72
2021/08/24 12:26:22;;;;;;;;;;;20.30;99.90;;;;;;5052618;28;19955;-73
2021/08/24 12:28:48;;;;;;;;;;;20.40;99.90;;;;;;5060332;28;20285;-74
2021/08/24 12:31:33;;;;;;;;;;;20.10;99.90;;;;;;5084636;28;19904;-73
2021/08/24 12:33:59;;;;;;;;;;;20.40;99.90;;;;;;5073894;28;19955;-72
2021/08/24 12:36:24;;;;;;;;;;;20.20;99.90;;;;;;5074087;28;19951;-75
2021/08/24 12:38:51;;;;;;;;;;;19.90;99.90;;;;;;5074646;28;19908;-73
2021/08/24 12:41:35;;;;;;;;;;;19.60;99.90;;;;;;5085947;28;19949;-73
2021/08/24 12:44:12;;;;;;;;;;;19.20;99.90;;;;;;5081206;28;19909;-73
2021/08/24 12:46:38;;;;;;;;;;;19.00;99.90;;;;;;5053798;28;19955;-73
2021/08/24 12:49:22;;;;;;;;;;;18.90;99.90;;;;;;5053678;28;19912;-73
2021/08/24 12:51:55;;;;;;;;;;;18.60;99.90;;;;;;5053844;28;19980;-73
2021/08/24 12:54:22;;;;;;;;;;;18.60;99.90;;;;;;5052389;28;19904;-73
2021/08/24 12:56:49;;;;;;;;;;;18.30;99.90;;;;;;5052010;28;19913;-72
2021/08/24 12:59:33;;;;;;;;;;;18.40;99.90;;;;;;5051773;28;20435;-73
2021/08/24 13:02:18;;;;;;;;;;;18.40;99.90;;;;;;5052192;28;20319;-73
2021/08/24 13:05:06;;;;;;;;;;;18.40;99.90;;;;;;5070079;28;19999;-72
2021/08/24 13:08:00;;;;;;;;;;;18.50;99.90;;;;;;5064762;28;19904;-74
2021/08/24 13:10:32;;;;;;;;;;;18.60;99.90;;;;;;5058076;28;19905;-75
2021/08/24 13:12:58;;;;;;;;;;;18.60;99.90;;;;;;5053275;28;19911;-73
2021/08/24 13:15:30;;;;;;;;;;;18.60;99.90;;;;;;5053016;28;19963;-73
2021/08/24 13:18:14;;;;;;;;;;;18.40;99.90;;;;;;5051782;28;19916;-73
2021/08/24 13:20:42;;;;;;;;;;;18.80;99.90;;;;;;5053183;28;19911;-73
2021/08/24 13:23:20;;;;;;;;;;;19.00;99.90;;;;;;5053069;28;19908;-72
2021/08/24 13:25:50;;;;;;;;;;;19.40;99.90;;;;;;5059414;28;19908;-73
2021/08/24 13:28:16;;;;;;;;;;;19.60;99.90;;;;;;5055260;28;19909;-73
2021/08/24 13:30:44;;;;;;;;;;;19.40;99.90;;;;;;5052653;28;19905;-74
2021/08/24 13:33:17;;;;;;;;;;;19.60;99.90;;;;;;5053095;28;20280;-73
2021/08/24 13:36:00;;;;;;;;;;;19.30;99.90;;;;;;5078440;28;20363;-75
2021/08/24 13:38:28;;;;;;;;;;;19.40;99.90;;;;;;5088569;28;19908;-73
2021/08/24 13:40:54;;;;;;;;;;;19.40;99.90;;;;;;5052532;28;20330;-72
2021/08/24 13:43:26;;;;;;;;;;;19.30;99.90;;;;;;5052561;28;19916;-73
2021/08/24 13:45:52;;;;;;;;;;;19.30;99.90;;;;;;5053198;28;19905;-72
2021/08/24 13:48:20;;;;;;;;;;;19.30;99.90;;;;;;5052665;28;19909;-73
2021/08/24 13:50:45;;;;;;;;;;;19.30;99.90;;;;;;5052677;28;19919;-73
2021/08/24 13:53:16;;;;;;;;;;;19.30;99.90;;;;;;5052577;28;19904;-74
2021/08/24 13:55:42;;;;;;;;;;;19.50;99.90;;;;;;5053678;28;19905;-74
2021/08/24 13:58:23;;;;;;;;;;;19.50;99.90;;;;;;5052931;28;19916;-72
2021/08/24 14:01:06;;;;;;;;;;;19.60;99.90;;;;;;5052908;28;20003;-74
2021/08/24 14:03:33;;;;;;;;;;;19.80;99.90;;;;;;5052297;28;19905;-73
2021/08/24 14:06:02;;;;;;;;;;;19.90;99.90;;;;;;5050972;28;19909;-72
2021/08/24 14:08:29;;;;;;;;;;;19.90;99.90;;;;;;5052226;28;19904;-72
2021/08/24 14:10:56;;;;;;;;;;;20.00;99.90;;;;;;5074421;28;19955;-73
2021/08/24 14:13:22;;;;;;;;;;;20.40;99.90;;;;;;5078048;28;19904;-73
2021/08/24 14:15:49;;;;;;;;;;;20.50;99.90;;;;;;5079190;28;19965;-75
2021/08/24 14:18:14;;;;;;;;;;;20.60;99.90;;;;;;5072876;28;19908;-74
2021/08/24 14:20:43;;;;;;;;;;;20.60;99.90;;;;;;5071529;28;19957;-74
2021/08/24 14:23:11;;;;;;;;;;;20.90;99.90;;;;;;5061288;28;20023;-73
2021/08/24 14:25:38;;;;;;;;;;;20.80;99.90;;;;;;5085900;28;20432;-74